sensor_id;sensor_type;location;lat;lon;timestamp;pressure;altitude;pressure_sealevel;temperature;humidity
10852;BME280;5479;52.046;6.314;2022-11-18T00:02:04;99490.03;;;8.09;100.00
10852;BME280;5479;52.046;6.314;2022-11-18T00:04:32;99492.34;;;8.13;100.00
10852;BME280;5479;52.046;6.314;2022-11-18T00:07:01;99495.97;;;8.12;100.00
10852;BME280;5479;52.046;6.314;2022-11-18T00:09:29;99503.94;;;8.11;100.00
10852;BME280;5479;52.046;6.314;2022-11-18T00:11:57;99504.19;;;8.08;100.00
10852;BME280;5479;52.046;6.314;2022-11-18T00:14:42;99510.06;;;8.11;100.00
10852;BME280;5479;52.046;6.314;2022-11-18T00:17:10;99512.28;;;8.17;100.00
10852;BME280;5479;52.046;6.314;2022-11-18T00:19:39;99509.03;;;8.26;100.00
10852;BME280;5479;52.046;6.314;2022-11-18T00:22:11;99510.44;;;8.32;100.00
10852;BME280;5479;52.046;6.314;2022-11-18T00:24:40;99515.69;;;8.44;100.00
10852;BME280;5479;52.046;6.314;2022-11-18T00:27:08;99519.56;;;8.52;100.00
10852;BME280;5479;52.046;6.314;2022-11-18T00:29:36;99529.34;;;8.62;100.00
10852;BME280;5479;52.046;6.314;2022-11-18T00:32:04;99527.25;;;8.55;100.00
10852;BME280;5479;52.046;6.314;2022-11-18T00:34:32;99537.50;;;8.46;100.00
10852;BME280;5479;52.046;6.314;2022-11-18T00:37:00;99535.16;;;8.55;100.00
10852;BME280;5479;52.046;6.314;2022-11-18T00:39:29;99534.97;;;8.58;100.00
10852;BME280;5479;52.046;6.314;2022-11-18T00:41:57;99530.06;;;8.64;100.00
10852;BME280;5479;52.046;6.314;2022-11-18T00:44:42;99536.63;;;8.71;100.00
10852;BME280;5479;52.046;6.314;2022-11-18T00:47:10;99537.13;;;8.76;100.00
10852;BME280;5479;52.046;6.314;2022-11-18T00:49:38;99533.84;;;8.73;100.00
10852;BME280;5479;52.046;6.314;2022-11-18T00:52:06;99536.78;;;8.81;100.00
10852;BME280;5479;52.046;6.314;2022-11-18T00:54:35;99541.97;;;8.82;100.00
10852;BME280;5479;52.046;6.314;2022-11-18T00:57:03;99540.41;;;8.80;100.00
10852;BME280;5479;52.046;6.314;2022-11-18T00:59:32;99549.69;;;8.73;100.00
10852;BME280;5479;52.046;6.314;2022-11-18T01:02:00;99558.34;;;8.75;100.00
10852;BME280;5479;52.046;6.314;2022-11-18T01:04:28;99558.63;;;8.83;100.00
10852;BME280;5479;52.046;6.314;2022-11-18T01:06:56;99553.06;;;8.75;100.00
10852;BME280;5479;52.046;6.314;2022-11-18T01:09:24;99556.59;;;8.63;100.00
10852;BME280;5479;52.046;6.314;2022-11-18T01:11:53;99561.00;;;8.62;100.00
10852;BME280;5479;52.046;6.314;2022-11-18T01:14:39;99563.00;;;8.71;100.00
10852;BME280;5479;52.046;6.314;2022-11-18T01:17:07;99558.38;;;8.62;100.00
10852;BME280;5479;52.046;6.314;2022-11-18T01:19:35;99563.25;;;8.56;100.00
10852;BME280;5479;52.046;6.314;2022-11-18T01:22:03;99560.91;;;8.51;100.00
10852;BME280;5479;52.046;6.314;2022-11-18T01:24:32;99562.75;;;8.51;100.00
10852;BME280;5479;52.046;6.314;2022-11-18T01:27:02;99565.78;;;8.44;100.00
10852;BME280;5479;52.046;6.314;2022-11-18T01:29:31;99572.13;;;8.29;100.00
10852;BME280;5479;52.046;6.314;2022-11-18T01:31:58;99571.03;;;8.19;100.00
10852;BME280;5479;52.046;6.314;2022-11-18T01:34:26;99576.72;;;8.13;100.00
10852;BME280;5479;52.046;6.314;2022-11-18T01:36:54;99582.44;;;8.07;100.00
10852;BME280;5479;52.046;6.314;2022-11-18T01:39:24;99581.78;;;8.04;100.00
10852;BME280;5479;52.046;6.314;2022-11-18T01:41:52;99577.78;;;7.98;100.00
10852;BME280;5479;52.046;6.314;2022-11-18T01:47:30;99597.19;;;7.97;100.00
10852;BME280;5479;52.046;6.314;2022-11-18T01:49:59;99592.34;;;8.04;100.00
10852;BME280;5479;52.046;6.314;2022-11-18T01:52:28;99595.72;;;8.06;100.00
10852;BME280;5479;52.046;6.314;2022-11-18T01:54:59;99594.44;;;8.11;100.00
10852;BME280;5479;52.046;6.314;2022-11-18T01:57:30;99587.91;;;8.17;100.00
10852;BME280;5479;52.046;6.314;2022-11-18T02:00:01;99588.56;;;8.20;100.00
10852;BME280;5479;52.046;6.314;2022-11-18T02:02:32;99599.53;;;8.27;100.00
10852;BME280;5479;52.046;6.314;2022-11-18T02:05:02;99606.72;;;8.37;100.00
10852;BME280;5479;52.046;6.314;2022-11-18T02:07:32;99604.84;;;8.39;100.00
10852;BME280;5479;52.046;6.314;2022-11-18T02:10:02;99609.16;;;8.40;100.00
10852;BME280;5479;52.046;6.314;2022-11-18T02:12:32;99612.63;;;8.41;100.00
10852;BME280;5479;52.046;6.314;2022-11-18T02:15:00;99618.22;;;8.49;100.00
10852;BME280;5479;52.046;6.314;2022-11-18T02:17:38;99625.72;;;8.55;100.00
10852;BME280;5479;52.046;6.314;2022-11-18T02:20:32;99617.47;;;8.60;100.00
10852;BME280;5479;52.046;6.314;2022-11-18T02:26:27;99627.69;;;8.64;100.00
10852;BME280;5479;52.046;6.314;2022-11-18T02:29:06;99626.94;;;8.75;100.00
10852;BME280;5479;52.046;6.314;2022-11-18T02:31:41;99627.41;;;8.69;100.00
10852;BME280;5479;52.046;6.314;2022-11-18T02:34:17;99628.69;;;8.63;100.00
10852;BME280;5479;52.046;6.314;2022-11-18T02:36:52;99637.94;;;8.56;100.00
10852;BME280;5479;52.046;6.314;2022-11-18T02:39:29;99636.16;;;8.57;100.00
10852;BME280;5479;52.046;6.314;2022-11-18T02:42:00;99639.88;;;8.67;100.00
10852;BME280;5479;52.046;6.314;2022-11-18T02:44:34;99638.69;;;8.71;100.00
10852;BME280;5479;52.046;6.314;2022-11-18T02:47:06;99633.91;;;8.88;100.00
10852;BME280;5479;52.046;6.314;2022-11-18T02:49:38;99640.38;;;8.84;100.00
10852;BME280;5479;52.046;6.314;2022-11-18T02:52:09;99638.78;;;8.82;100.00
10852;BME280;5479;52.046;6.314;2022-11-18T02:54:40;99643.97;;;8.71;100.00
10852;BME280;5479;52.046;6.314;2022-11-18T02:57:10;99644.72;;;8.85;100.00
10852;BME280;5479;52.046;6.314;2022-11-18T02:59:41;99650.28;;;8.81;100.00
10852;BME280;5479;52.046;6.314;2022-11-18T03:02:14;99653.59;;;8.72;100.00
10852;BME280;5479;52.046;6.314;2022-11-18T03:04:43;99655.91;;;8.76;100.00
10852;BME280;5479;52.046;6.314;2022-11-18T03:07:16;99655.56;;;8.81;100.00
10852;BME280;5479;52.046;6.314;2022-11-18T03:09:47;99652.50;;;8.87;100.00
10852;BME280;5479;52.046;6.314;2022-11-18T03:12:27;99653.97;;;8.91;100.00
10852;BME280;5479;52.046;6.314;2022-11-18T03:15:10;99657.78;;;8.87;100.00
10852;BME280;5479;52.046;6.314;2022-11-18T03:17:47;99663.91;;;8.87;100.00
10852;BME280;5479;52.046;6.314;2022-11-18T03:20:19;99665.28;;;8.93;100.00
10852;BME280;5479;52.046;6.314;2022-11-18T03:22:53;99677.19;;;8.86;100.00
10852;BME280;5479;52.046;6.314;2022-11-18T03:25:28;99673.00;;;8.96;100.00
10852;BME280;5479;52.046;6.314;2022-11-18T03:28:06;99680.06;;;8.83;100.00
10852;BME280;5479;52.046;6.314;2022-11-18T03:30:42;99684.41;;;8.84;100.00
10852;BME280;5479;52.046;6.314;2022-11-18T03:33:14;99679.63;;;8.89;100.00
10852;BME280;5479;52.046;6.314;2022-11-18T03:35:47;99685.44;;;8.94;100.00
10852;BME280;5479;52.046;6.314;2022-11-18T03:38:20;99687.66;;;9.00;100.00
10852;BME280;5479;52.046;6.314;2022-11-18T03:40:54;99688.28;;;8.91;100.00
10852;BME280;5479;52.046;6.314;2022-11-18T03:43:26;99687.34;;;8.92;100.00
10852;BME280;5479;52.046;6.314;2022-11-18T03:46:01;99699.38;;;8.83;100.00
10852;BME280;5479;52.046;6.314;2022-11-18T03:48:35;99697.06;;;8.79;100.00
10852;BME280;5479;52.046;6.314;2022-11-18T03:51:06;99698.53;;;8.83;100.00
10852;BME280;5479;52.046;6.314;2022-11-18T03:53:37;99705.09;;;8.90;100.00
10852;BME280;5479;52.046;6.314;2022-11-18T03:56:09;99707.63;;;8.91;100.00
10852;BME280;5479;52.046;6.314;2022-11-18T03:58:44;99700.88;;;8.87;100.00
10852;BME280;5479;52.046;6.314;2022-11-18T04:01:17;99708.16;;;8.84;100.00
10852;BME280;5479;52.046;6.314;2022-11-18T04:03:48;99708.66;;;8.89;100.00
10852;BME280;5479;52.046;6.314;2022-11-18T04:06:20;99719.66;;;8.83;100.00
10852;BME280;5479;52.046;6.314;2022-11-18T04:08:54;99722.53;;;8.80;100.00
10852;BME280;5479;52.046;6.314;2022-11-18T04:11:27;99723.47;;;8.79;100.00
10852;BME280;5479;52.046;6.314;2022-11-18T04:14:15;99724.31;;;8.79;100.00
10852;BME280;5479;52.046;6.314;2022-11-18T04:16:50;99729.16;;;8.73;100.00
10852;BME280;5479;52.046;6.314;2022-11-18T04:19:18;99739.38;;;8.65;100.00
10852;BME280;5479;52.046;6.314;2022-11-18T04:21:47;99730.84;;;8.61;100.00
10852;BME280;5479;52.046;6.314;2022-11-18T04:24:15;99742.22;;;8.62;100.00
10852;BME280;5479;52.046;6.314;2022-11-18T04:26:43;99744.34;;;8.57;100.00
10852;BME280;5479;52.046;6.314;2022-11-18T04:29:13;99741.16;;;8.52;100.00
10852;BME280;5479;52.046;6.314;2022-11-18T04:31:41;99741.16;;;8.52;100.00
10852;BME280;5479;52.046;6.314;2022-11-18T04:34:10;99743.72;;;8.53;100.00
10852;BME280;5479;52.046;6.314;2022-11-18T04:36:38;99751.72;;;8.52;100.00
10852;BME280;5479;52.046;6.314;2022-11-18T04:39:07;99761.13;;;8.56;100.00
10852;BME280;5479;52.046;6.314;2022-11-18T04:41:35;99762.72;;;8.58;100.00
10852;BME280;5479;52.046;6.314;2022-11-18T04:44:21;99769.47;;;8.62;100.00
10852;BME280;5479;52.046;6.314;2022-11-18T04:46:50;99765.69;;;8.66;100.00
10852;BME280;5479;52.046;6.314;2022-11-18T04:49:19;99775.19;;;8.69;100.00
10852;BME280;5479;52.046;6.314;2022-11-18T04:51:47;99782.91;;;8.72;100.00
10852;BME280;5479;52.046;6.314;2022-11-18T04:54:17;99778.16;;;8.77;100.00
10852;BME280;5479;52.046;6.314;2022-11-18T04:56:46;99785.22;;;8.89;100.00
10852;BME280;5479;52.046;6.314;2022-11-18T04:59:17;99785.75;;;8.94;100.00
10852;BME280;5479;52.046;6.314;2022-11-18T05:01:46;99786.00;;;9.03;100.00
10852;BME280;5479;52.046;6.314;2022-11-18T05:04:16;99786.84;;;9.04;100.00
10852;BME280;5479;52.046;6.314;2022-11-18T05:06:45;99780.59;;;9.05;100.00
10852;BME280;5479;52.046;6.314;2022-11-18T05:09:13;99786.59;;;9.07;100.00
10852;BME280;5479;52.046;6.314;2022-11-18T05:11:42;99791.16;;;9.05;100.00
10852;BME280;5479;52.046;6.314;2022-11-18T05:14:28;99789.25;;;9.07;100.00
10852;BME280;5479;52.046;6.314;2022-11-18T05:16:58;99789.56;;;9.15;100.00
10852;BME280;5479;52.046;6.314;2022-11-18T05:19:26;99798.97;;;9.19;100.00
10852;BME280;5479;52.046;6.314;2022-11-18T05:21:56;99794.84;;;9.15;100.00
10852;BME280;5479;52.046;6.314;2022-11-18T05:24:24;99800.78;;;9.06;100.00
10852;BME280;5479;52.046;6.314;2022-11-18T05:26:53;99803.09;;;8.98;100.00
10852;BME280;5479;52.046;6.314;2022-11-18T05:29:21;99801.72;;;8.92;100.00
10852;BME280;5479;52.046;6.314;2022-11-18T05:31:50;99809.00;;;8.89;100.00
10852;BME280;5479;52.046;6.314;2022-11-18T05:34:18;99807.09;;;8.91;100.00
10852;BME280;5479;52.046;6.314;2022-11-18T05:36:46;99816.91;;;8.89;100.00
10852;BME280;5479;52.046;6.314;2022-11-18T05:39:16;99811.09;;;8.84;100.00
10852;BME280;5479;52.046;6.314;2022-11-18T05:41:44;99819.03;;;8.84;100.00
10852;BME280;5479;52.046;6.314;2022-11-18T05:44:29;99826.81;;;8.73;100.00
10852;BME280;5479;52.046;6.314;2022-11-18T05:46:57;99830.91;;;8.64;100.00
10852;BME280;5479;52.046;6.314;2022-11-18T05:49:25;99827.72;;;8.59;100.00
10852;BME280;5479;52.046;6.314;2022-11-18T05:51:54;99839.13;;;8.60;100.00
10852;BME280;5479;52.046;6.314;2022-11-18T05:54:23;99839.44;;;8.55;100.00
10852;BME280;5479;52.046;6.314;2022-11-18T05:56:52;99838.47;;;8.56;100.00
10852;BME280;5479;52.046;6.314;2022-11-18T05:59:21;99841.34;;;8.53;100.00
10852;BME280;5479;52.046;6.314;2022-11-18T06:01:51;99850.50;;;8.47;100.00
10852;BME280;5479;52.046;6.314;2022-11-18T06:04:23;99849.00;;;8.43;100.00
10852;BME280;5479;52.046;6.314;2022-11-18T06:06:56;99852.03;;;8.37;100.00
10852;BME280;5479;52.046;6.314;2022-11-18T06:09:29;99854.50;;;8.26;100.00
10852;BME280;5479;52.046;6.314;2022-11-18T06:12:03;99863.56;;;8.22;100.00
10852;BME280;5479;52.046;6.314;2022-11-18T06:14:36;99863.75;;;8.33;100.00
10852;BME280;5479;52.046;6.314;2022-11-18T06:17:09;99857.91;;;8.28;100.00
10852;BME280;5479;52.046;6.314;2022-11-18T06:19:38;99867.63;;;8.28;100.00
10852;BME280;5479;52.046;6.314;2022-11-18T06:22:07;99874.28;;;8.33;100.00
10852;BME280;5479;52.046;6.314;2022-11-18T06:24:37;99876.38;;;8.28;100.00
10852;BME280;5479;52.046;6.314;2022-11-18T06:27:05;99885.38;;;8.24;100.00
10852;BME280;5479;52.046;6.314;2022-11-18T06:29:33;99889.00;;;8.23;100.00
10852;BME280;5479;52.046;6.314;2022-11-18T06:32:01;99896.44;;;8.31;100.00
10852;BME280;5479;52.046;6.314;2022-11-18T06:34:29;99897.66;;;8.39;100.00
10852;BME280;5479;52.046;6.314;2022-11-18T06:36:57;99898.56;;;8.38;100.00
10852;BME280;5479;52.046;6.314;2022-11-18T06:39:24;99902.81;;;8.41;100.00
10852;BME280;5479;52.046;6.314;2022-11-18T06:41:54;99908.28;;;8.38;100.00
10852;BME280;5479;52.046;6.314;2022-11-18T06:44:22;99901.59;;;8.32;100.00
10852;BME280;5479;52.046;6.314;2022-11-18T06:46:48;99908.47;;;8.35;100.00
10852;BME280;5479;52.046;6.314;2022-11-18T06:49:24;99915.44;;;8.36;100.00
10852;BME280;5479;52.046;6.314;2022-11-18T06:51:53;99925.16;;;8.35;100.00
10852;BME280;5479;52.046;6.314;2022-11-18T06:54:21;99930.63;;;8.32;100.00
10852;BME280;5479;52.046;6.314;2022-11-18T06:56:49;99939.34;;;8.47;100.00
10852;BME280;5479;52.046;6.314;2022-11-18T06:59:18;99946.53;;;8.45;100.00
10852;BME280;5479;52.046;6.314;2022-11-18T07:01:50;99959.81;;;8.43;100.00
10852;BME280;5479;52.046;6.314;2022-11-18T07:04:18;99954.72;;;8.40;100.00
10852;BME280;5479;52.046;6.314;2022-11-18T07:06:47;99958.41;;;8.38;100.00
10852;BME280;5479;52.046;6.314;2022-11-18T07:09:17;99958.31;;;8.39;100.00
10852;BME280;5479;52.046;6.314;2022-11-18T07:11:45;99963.47;;;8.41;100.00
10852;BME280;5479;52.046;6.314;2022-11-18T07:14:13;99964.88;;;8.46;100.00
10852;BME280;5479;52.046;6.314;2022-11-18T07:16:43;99966.47;;;8.49;100.00
10852;BME280;5479;52.046;6.314;2022-11-18T07:19:12;99970.13;;;8.61;100.00
10852;BME280;5479;52.046;6.314;2022-11-18T07:21:40;99976.91;;;8.65;100.00
10852;BME280;5479;52.046;6.314;2022-11-18T07:24:12;99987.81;;;8.73;100.00
10852;BME280;5479;52.046;6.314;2022-11-18T07:26:40;99983.59;;;8.70;100.00
10852;BME280;5479;52.046;6.314;2022-11-18T07:29:09;99991.25;;;8.61;100.00
10852;BME280;5479;52.046;6.314;2022-11-18T07:31:38;99991.25;;;8.61;100.00
10852;BME280;5479;52.046;6.314;2022-11-18T07:34:07;99989.53;;;8.74;100.00
10852;BME280;5479;52.046;6.314;2022-11-18T07:36:35;99994.78;;;8.74;100.00
10852;BME280;5479;52.046;6.314;2022-11-18T07:39:04;99993.56;;;8.79;100.00
10852;BME280;5479;52.046;6.314;2022-11-18T07:41:33;99994.69;;;8.75;100.00
10852;BME280;5479;52.046;6.314;2022-11-18T07:44:02;99992.16;;;8.74;100.00
10852;BME280;5479;52.046;6.314;2022-11-18T07:46:32;99999.47;;;8.83;100.00
10852;BME280;5479;52.046;6.314;2022-11-18T07:49:02;100005.59;;;8.83;100.00
10852;BME280;5479;52.046;6.314;2022-11-18T07:51:33;100003.25;;;8.79;100.00
10852;BME280;5479;52.046;6.314;2022-11-18T07:54:05;100009.66;;;8.75;100.00
10852;BME280;5479;52.046;6.314;2022-11-18T07:56:33;100015.53;;;8.80;100.00
10852;BME280;5479;52.046;6.314;2022-11-18T07:59:00;100016.63;;;8.90;100.00
10852;BME280;5479;52.046;6.314;2022-11-18T08:01:29;100021.78;;;8.91;100.00
10852;BME280;5479;52.046;6.314;2022-11-18T08:04:03;100022.59;;;8.79;100.00
10852;BME280;5479;52.046;6.314;2022-11-18T08:06:33;100026.56;;;8.72;100.00
10852;BME280;5479;52.046;6.314;2022-11-18T08:09:01;100039.13;;;8.69;100.00
10852;BME280;5479;52.046;6.314;2022-11-18T08:11:29;100037.59;;;8.65;100.00
10852;BME280;5479;52.046;6.314;2022-11-18T08:13:57;100040.16;;;8.66;100.00
10852;BME280;5479;52.046;6.314;2022-11-18T08:16:25;100038.69;;;8.75;100.00
10852;BME280;5479;52.046;6.314;2022-11-18T08:18:53;100048.03;;;8.80;100.00
10852;BME280;5479;52.046;6.314;2022-11-18T08:21:22;100050.75;;;8.93;100.00
10852;BME280;5479;52.046;6.314;2022-11-18T08:23:53;100047.34;;;8.91;100.00
10852;BME280;5479;52.046;6.314;2022-11-18T08:26:21;100057.72;;;8.94;100.00
10852;BME280;5479;52.046;6.314;2022-11-18T08:28:50;100052.19;;;9.11;100.00
10852;BME280;5479;52.046;6.314;2022-11-18T08:31:20;100063.47;;;9.27;100.00
10852;BME280;5479;52.046;6.314;2022-11-18T08:33:48;100051.63;;;9.20;100.00
10852;BME280;5479;52.046;6.314;2022-11-18T08:36:17;100066.84;;;9.29;100.00
10852;BME280;5479;52.046;6.314;2022-11-18T08:38:48;100058.31;;;9.38;100.00
10852;BME280;5479;52.046;6.314;2022-11-18T08:41:23;100061.72;;;9.40;100.00
10852;BME280;5479;52.046;6.314;2022-11-18T08:43:52;100059.53;;;9.59;100.00
10852;BME280;5479;52.046;6.314;2022-11-18T08:46:21;100067.28;;;9.62;100.00
10852;BME280;5479;52.046;6.314;2022-11-18T08:48:48;100072.66;;;9.61;100.00
10852;BME280;5479;52.046;6.314;2022-11-18T08:51:19;100083.34;;;9.59;100.00
10852;BME280;5479;52.046;6.314;2022-11-18T08:53:47;100077.94;;;9.61;100.00
10852;BME280;5479;52.046;6.314;2022-11-18T08:56:17;100079.72;;;9.60;100.00
10852;BME280;5479;52.046;6.314;2022-11-18T08:58:46;100084.94;;;9.75;100.00
10852;BME280;5479;52.046;6.314;2022-11-18T09:01:14;100081.38;;;9.88;100.00
10852;BME280;5479;52.046;6.314;2022-11-18T09:03:42;100084.13;;;10.12;100.00
10852;BME280;5479;52.046;6.314;2022-11-18T09:06:12;100082.38;;;10.50;100.00
10852;BME280;5479;52.046;6.314;2022-11-18T09:08:41;100078.22;;;10.71;100.00
10852;BME280;5479;52.046;6.314;2022-11-18T09:11:10;100081.53;;;10.99;100.00
10852;BME280;5479;52.046;6.314;2022-11-18T09:13:42;100084.69;;;11.04;100.00
10852;BME280;5479;52.046;6.314;2022-11-18T09:16:10;100080.41;;;11.61;100.00
10852;BME280;5479;52.046;6.314;2022-11-18T09:18:38;100074.34;;;12.29;100.00
10852;BME280;5479;52.046;6.314;2022-11-18T09:21:08;100074.38;;;12.62;100.00
10852;BME280;5479;52.046;6.314;2022-11-18T09:23:37;100068.06;;;12.74;100.00
10852;BME280;5479;52.046;6.314;2022-11-18T09:26:07;100075.56;;;13.13;100.00
10852;BME280;5479;52.046;6.314;2022-11-18T09:28:36;100073.84;;;13.55;100.00
10852;BME280;5479;52.046;6.314;2022-11-18T09:31:06;100088.50;;;13.50;100.00
10852;BME280;5479;52.046;6.314;2022-11-18T09:33:35;100082.56;;;12.70;100.00
10852;BME280;5479;52.046;6.314;2022-11-18T09:36:05;100089.56;;;12.60;100.00
10852;BME280;5479;52.046;6.314;2022-11-18T09:38:37;100088.38;;;12.53;100.00
10852;BME280;5479;52.046;6.314;2022-11-18T09:41:15;100094.03;;;12.48;100.00
10852;BME280;5479;52.046;6.314;2022-11-18T09:43:59;100097.94;;;13.43;100.00
10852;BME280;5479;52.046;6.314;2022-11-18T09:46:35;100102.00;;;13.58;100.00
10852;BME280;5479;52.046;6.314;2022-11-18T09:49:13;100105.25;;;13.93;100.00
10852;BME280;5479;52.046;6.314;2022-11-18T09:51:43;100116.09;;;14.01;100.00
10852;BME280;5479;52.046;6.314;2022-11-18T09:54:18;100100.09;;;15.03;100.00
10852;BME280;5479;52.046;6.314;2022-11-18T09:56:47;100104.75;;;15.10;100.00
10852;BME280;5479;52.046;6.314;2022-11-18T09:59:19;100101.94;;;15.81;100.00
10852;BME280;5479;52.046;6.314;2022-11-18T10:01:53;100109.50;;;15.95;100.00
10852;BME280;5479;52.046;6.314;2022-11-18T10:04:22;100111.97;;;15.39;100.00
10852;BME280;5479;52.046;6.314;2022-11-18T10:06:50;100116.19;;;15.41;100.00
10852;BME280;5479;52.046;6.314;2022-11-18T10:09:25;100104.75;;;15.89;100.00
10852;BME280;5479;52.046;6.314;2022-11-18T10:12:17;100127.47;;;14.75;100.00
10852;BME280;5479;52.046;6.314;2022-11-18T10:14:58;100116.53;;;15.08;100.00
10852;BME280;5479;52.046;6.314;2022-11-18T10:17:42;100116.53;;;15.96;100.00
10852;BME280;5479;52.046;6.314;2022-11-18T10:20:31;100126.22;;;16.81;100.00
10852;BME280;5479;52.046;6.314;2022-11-18T10:23:06;100129.59;;;16.18;100.00
10852;BME280;5479;52.046;6.314;2022-11-18T10:25:39;100133.94;;;16.19;100.00
10852;BME280;5479;52.046;6.314;2022-11-18T10:28:16;100136.75;;;15.50;100.00
10852;BME280;5479;52.046;6.314;2022-11-18T10:30:45;100139.59;;;15.28;100.00
10852;BME280;5479;52.046;6.314;2022-11-18T10:33:24;100138.13;;;15.05;100.00
10852;BME280;5479;52.046;6.314;2022-11-18T10:36:24;100128.91;;;15.97;100.00
10852;BME280;5479;52.046;6.314;2022-11-18T10:39:11;100123.78;;;17.25;100.00
10852;BME280;5479;52.046;6.314;2022-11-18T10:41:48;100127.34;;;16.79;96.12
10852;BME280;5479;52.046;6.314;2022-11-18T10:44:33;100129.16;;;16.22;100.00
10852;BME280;5479;52.046;6.314;2022-11-18T10:47:19;100127.22;;;15.96;100.00
10852;BME280;5479;52.046;6.314;2022-11-18T10:49:50;100140.81;;;15.15;100.00
10852;BME280;5479;52.046;6.314;2022-11-18T10:52:19;100147.22;;;15.42;100.00
10852;BME280;5479;52.046;6.314;2022-11-18T10:55:18;100150.59;;;14.65;100.00
10852;BME280;5479;52.046;6.314;2022-11-18T10:57:50;100156.38;;;14.28;100.00
10852;BME280;5479;52.046;6.314;2022-11-18T11:00:33;100166.22;;;13.96;100.00
10852;BME280;5479;52.046;6.314;2022-11-18T11:03:14;100165.16;;;13.45;100.00
10852;BME280;5479;52.046;6.314;2022-11-18T11:08:55;100157.22;;;13.11;100.00
10852;BME280;5479;52.046;6.314;2022-11-18T11:11:25;100173.78;;;13.69;100.00
10852;BME280;5479;52.046;6.314;2022-11-18T11:14:01;100167.09;;;15.19;100.00
10852;BME280;5479;52.046;6.314;2022-11-18T11:16:32;100160.06;;;15.48;100.00
10852;BME280;5479;52.046;6.314;2022-11-18T11:19:04;100173.91;;;14.52;100.00
10852;BME280;5479;52.046;6.314;2022-11-18T11:21:36;100175.78;;;14.61;100.00
10852;BME280;5479;52.046;6.314;2022-11-18T11:24:09;100170.09;;;14.13;100.00
10852;BME280;5479;52.046;6.314;2022-11-18T11:26:45;100164.00;;;14.22;100.00
10852;BME280;5479;52.046;6.314;2022-11-18T11:29:20;100164.25;;;14.81;100.00
10852;BME280;5479;52.046;6.314;2022-11-18T11:32:00;100154.47;;;16.09;100.00
10852;BME280;5479;52.046;6.314;2022-11-18T11:34:37;100154.88;;;17.53;94.63
10852;BME280;5479;52.046;6.314;2022-11-18T11:37:17;100156.16;;;17.49;83.42
10852;BME280;5479;52.046;6.314;2022-11-18T11:40:00;100159.31;;;17.08;85.60
10852;BME280;5479;52.046;6.314;2022-11-18T11:42:37;100168.38;;;16.03;95.21
10852;BME280;5479;52.046;6.314;2022-11-18T11:45:17;100171.03;;;16.41;93.65
10852;BME280;5479;52.046;6.314;2022-11-18T11:48:03;100175.97;;;16.36;97.31
10852;BME280;5479;52.046;6.314;2022-11-18T11:50:40;100179.34;;;16.38;89.51
10852;BME280;5479;52.046;6.314;2022-11-18T11:53:31;100182.75;;;15.43;98.73
10852;BME280;5479;52.046;6.314;2022-11-18T11:56:11;100180.09;;;15.03;100.00
10852;BME280;5479;52.046;6.314;2022-11-18T12:02:13;100184.13;;;16.06;98.80
10852;BME280;5479;52.046;6.314;2022-11-18T12:04:48;100184.25;;;15.85;96.60
10852;BME280;5479;52.046;6.314;2022-11-18T12:07:19;100192.78;;;15.50;100.00
10852;BME280;5479;52.046;6.314;2022-11-18T12:12:51;100189.41;;;14.58;100.00
10852;BME280;5479;52.046;6.314;2022-11-18T12:15:31;100189.69;;;14.23;100.00
10852;BME280;5479;52.046;6.314;2022-11-18T12:18:09;100193.28;;;14.01;100.00
10852;BME280;5479;52.046;6.314;2022-11-18T12:20:42;100193.56;;;13.87;100.00
10852;BME280;5479;52.046;6.314;2022-11-18T12:23:16;100195.75;;;13.82;100.00
10852;BME280;5479;52.046;6.314;2022-11-18T12:25:57;100200.97;;;13.72;100.00
10852;BME280;5479;52.046;6.314;2022-11-18T12:28:29;100200.22;;;13.39;100.00
10852;BME280;5479;52.046;6.314;2022-11-18T12:31:26;100199.03;;;13.09;100.00
10852;BME280;5479;52.046;6.314;2022-11-18T12:33:59;100195.50;;;12.87;100.00
10852;BME280;5479;52.046;6.314;2022-11-18T12:36:30;100204.97;;;12.56;100.00
10852;BME280;5479;52.046;6.314;2022-11-18T12:42:39;100212.72;;;12.59;100.00
10852;BME280;5479;52.046;6.314;2022-11-18T12:45:48;100202.44;;;12.65;100.00
10852;BME280;5479;52.046;6.314;2022-11-18T12:48:32;100216.38;;;12.80;100.00
10852;BME280;5479;52.046;6.314;2022-11-18T12:51:02;100215.28;;;12.83;100.00
10852;BME280;5479;52.046;6.314;2022-11-18T12:53:35;100211.84;;;12.47;100.00
10852;BME280;5479;52.046;6.314;2022-11-18T12:56:20;100215.25;;;12.26;100.00
10852;BME280;5479;52.046;6.314;2022-11-18T12:58:51;100221.06;;;12.20;100.00
10852;BME280;5479;52.046;6.314;2022-11-18T13:01:20;100221.84;;;12.09;100.00
10852;BME280;5479;52.046;6.314;2022-11-18T13:03:50;100223.31;;;11.89;100.00
10852;BME280;5479;52.046;6.314;2022-11-18T13:06:23;100226.13;;;11.75;100.00
10852;BME280;5479;52.046;6.314;2022-11-18T13:08:55;100229.16;;;11.58;100.00
10852;BME280;5479;52.046;6.314;2022-11-18T13:11:26;100232.44;;;11.49;100.00
10852;BME280;5479;52.046;6.314;2022-11-18T13:14:17;100225.00;;;11.54;100.00
10852;BME280;5479;52.046;6.314;2022-11-18T13:17:22;100236.34;;;11.56;100.00
10852;BME280;5479;52.046;6.314;2022-11-18T13:20:18;100245.69;;;11.74;100.00
10852;BME280;5479;52.046;6.314;2022-11-18T13:22:50;100236.41;;;11.67;100.00
10852;BME280;5479;52.046;6.314;2022-11-18T13:25:36;100242.69;;;11.66;100.00
10852;BME280;5479;52.046;6.314;2022-11-18T13:28:12;100237.09;;;11.71;100.00
10852;BME280;5479;52.046;6.314;2022-11-18T13:30:51;100243.53;;;11.79;100.00
10852;BME280;5479;52.046;6.314;2022-11-18T13:33:21;100245.28;;;11.91;100.00
10852;BME280;5479;52.046;6.314;2022-11-18T13:35:49;100242.81;;;12.01;100.00
10852;BME280;5479;52.046;6.314;2022-11-18T13:38:20;100243.09;;;12.09;100.00
10852;BME280;5479;52.046;6.314;2022-11-18T13:40:50;100241.84;;;12.02;100.00
10852;BME280;5479;52.046;6.314;2022-11-18T13:43:38;100247.34;;;11.75;100.00
10852;BME280;5479;52.046;6.314;2022-11-18T13:46:12;100247.56;;;11.72;100.00
10852;BME280;5479;52.046;6.314;2022-11-18T13:48:46;100247.56;;;11.72;100.00
10852;BME280;5479;52.046;6.314;2022-11-18T13:51:17;100246.50;;;11.62;100.00